Time;durP1;ratioP1;P1;durP2;ratioP2;P2;SDS_P1;SDS_P2;PMS_P1;PMS_P2;Temp;Humidity;BMP_temperature;BMP_pressure;BME280_temperature;BME280_humidity;BME280_pressure;Samples;Min_cycle;Max_cycle;Signal;HPM_P1;HPM_P2
2022/06/28 00:02:06;;;;;;;4.35;1.30;;;19.60;99.90;;;;;;6913044;28;20459;-78
2022/06/28 00:05:28;;;;;;;4.03;1.35;;;19.60;99.90;;;;;;6913856;28;20436;-78
2022/06/28 00:08:51;;;;;;;2.97;1.30;;;19.50;99.90;;;;;;6913936;28;20447;-80
2022/06/28 00:12:13;;;;;;;4.53;1.60;;;19.50;99.90;;;;;;6914975;28;20436;-82
2022/06/28 00:19:16;;;;;;;2.83;1.40;;;19.50;99.90;;;;;;6912410;28;20432;-80
2022/06/28 00:22:38;;;;;;;3.00;1.40;;;19.50;99.90;;;;;;6914159;28;20468;-79
2022/06/28 00:26:00;;;;;;;3.35;1.30;;;19.50;99.90;;;;;;6913703;28;20439;-79
2022/06/28 00:29:23;;;;;;;3.25;1.40;;;19.50;99.90;;;;;;6912084;28;20451;-78
2022/06/28 00:32:45;;;;;;;3.50;1.30;;;19.50;99.90;;;;;;6914734;28;20539;-77
2022/06/28 00:36:08;;;;;;;3.30;1.50;;;19.40;99.90;;;;;;6913879;28;20432;-79
2022/06/28 00:39:30;;;;;;;4.13;1.30;;;19.30;99.90;;;;;;6913381;28;20467;-80
2022/06/28 00:42:52;;;;;;;2.85;1.42;;;19.30;99.90;;;;;;6914129;28;20444;-80
2022/06/28 00:46:15;;;;;;;3.60;1.40;;;19.40;99.90;;;;;;6913246;28;20440;-80
2022/06/28 00:49:40;;;;;;;4.28;1.40;;;19.40;99.90;;;;;;6912259;28;20883;-80
2022/06/28 00:53:08;;;;;;;4.20;1.45;;;19.30;99.90;;;;;;6912979;28;20943;-80
2022/06/28 00:56:30;;;;;;;5.63;1.30;;;19.40;99.90;;;;;;6912990;28;20806;-78
2022/06/28 00:59:52;;;;;;;4.82;1.67;;;19.50;99.90;;;;;;6917663;28;20962;-80
2022/06/28 01:03:18;;;;;;;4.43;1.52;;;19.30;99.90;;;;;;6918625;28;20951;-79
2022/06/28 01:06:41;;;;;;;4.10;1.40;;;19.30;99.90;;;;;;6918996;28;20556;-78
2022/06/28 01:10:05;;;;;;;4.25;1.45;;;19.30;99.90;;;;;;6916921;28;20492;-80
2022/06/28 01:13:27;;;;;;;4.68;1.40;;;19.20;99.90;;;;;;6917979;28;20447;-80
2022/06/28 01:16:49;;;;;;;4.32;1.40;;;19.30;99.90;;;;;;6919257;28;20429;-79
2022/06/28 01:20:12;;;;;;;3.38;1.30;;;19.30;99.90;;;;;;6917369;28;20447;-79
2022/06/28 01:23:35;;;;;;;3.80;1.40;;;19.20;99.90;;;;;;6918989;28;20973;-78
2022/06/28 01:26:57;;;;;;;4.60;1.20;;;19.20;99.90;;;;;;6918824;28;20448;-80
2022/06/28 01:30:20;;;;;;;6.97;1.40;;;19.20;99.90;;;;;;6917475;28;20580;-78
2022/06/28 01:33:42;;;;;;;3.83;1.38;;;19.30;99.90;;;;;;6918537;28;20945;-79
2022/06/28 01:37:04;;;;;;;4.97;1.30;;;19.20;99.90;;;;;;6917003;28;20483;-80
2022/06/28 01:40:28;;;;;;;4.45;1.10;;;19.20;99.90;;;;;;6917385;28;20471;-80
2022/06/28 01:43:50;;;;;;;4.47;1.30;;;19.20;99.90;;;;;;6917385;28;20933;-80
2022/06/28 01:47:14;;;;;;;4.70;1.35;;;19.20;99.90;;;;;;6917006;28;20869;-79
2022/06/28 01:50:36;;;;;;;2.67;1.00;;;19.20;99.90;;;;;;6917764;28;20932;-80
2022/06/28 01:53:59;;;;;;;3.60;1.10;;;19.30;99.90;;;;;;6916508;28;20433;-80
2022/06/28 01:57:22;;;;;;;4.00;1.30;;;19.30;99.90;;;;;;6916524;28;20965;-82
2022/06/28 02:00:44;;;;;;;4.93;1.33;;;19.30;99.90;;;;;;6928048;28;20428;-78
2022/06/28 02:04:19;;;;;;;3.75;1.17;;;19.20;99.90;;;;;;6921734;28;20918;-79
2022/06/28 02:07:47;;;;;;;2.63;1.20;;;19.20;99.90;;;;;;6917265;28;20444;-81
2022/06/28 02:11:09;;;;;;;4.53;1.30;;;19.20;99.90;;;;;;6913225;28;20444;-79
2022/06/28 02:14:33;;;;;;;4.38;1.30;;;19.20;99.90;;;;;;6916826;28;20433;-79
2022/06/28 02:17:59;;;;;;;4.03;1.38;;;19.20;99.90;;;;;;6916130;28;20436;-77
2022/06/28 02:21:21;;;;;;;3.50;1.20;;;19.20;99.90;;;;;;6916531;28;20439;-81
2022/06/28 02:24:43;;;;;;;3.45;1.20;;;19.20;99.90;;;;;;6916730;28;20526;-80
2022/06/28 02:28:05;;;;;;;3.13;1.10;;;19.20;99.90;;;;;;6915339;28;20441;-79
2022/06/28 02:31:29;;;;;;;3.05;1.20;;;19.30;99.90;;;;;;6916685;28;20437;-77
2022/06/28 02:42:10;;;;;;;5.45;1.25;;;19.20;99.90;;;;;;6913879;28;20429;-77
2022/06/28 02:45:35;;;;;;;4.00;1.30;;;19.20;99.90;;;;;;6888764;28;20478;-78
2022/06/28 02:48:58;;;;;;;3.03;1.23;;;19.30;99.90;;;;;;6888927;28;20449;-79
2022/06/28 02:52:20;;;;;;;3.78;1.30;;;19.20;99.90;;;;;;6905438;28;20847;-77
2022/06/28 02:55:43;;;;;;;3.95;1.33;;;19.20;99.90;;;;;;6916308;28;20456;-77
2022/06/28 02:59:05;;;;;;;3.88;1.17;;;19.20;99.90;;;;;;6916201;28;20439;-78
2022/06/28 03:02:27;;;;;;;2.85;1.20;;;19.20;99.90;;;;;;6915106;28;20436;-79
2022/06/28 03:05:50;;;;;;;3.63;1.10;;;19.20;99.90;;;;;;6916487;28;20437;-79
2022/06/28 03:09:12;;;;;;;5.30;1.30;;;19.10;99.90;;;;;;6914940;28;20440;-78
2022/06/28 03:12:34;;;;;;;5.72;1.30;;;19.10;99.90;;;;;;6913578;28;20443;-78
2022/06/28 03:15:56;;;;;;;3.80;1.30;;;19.10;99.90;;;;;;6914687;28;20436;-79
2022/06/28 03:19:18;;;;;;;3.95;1.10;;;19.00;99.90;;;;;;6915567;28;20443;-79
2022/06/28 03:22:42;;;;;;;4.07;1.40;;;18.90;99.90;;;;;;6913037;28;20468;-81
2022/06/28 03:26:04;;;;;;;2.95;1.20;;;18.80;99.90;;;;;;6916151;28;20480;-78
2022/06/28 03:29:26;;;;;;;2.80;1.30;;;18.70;99.90;;;;;;6915799;28;20472;-79
2022/06/28 03:32:48;;;;;;;5.20;1.50;;;18.70;99.90;;;;;;6914337;28;20439;-78
2022/06/28 03:36:10;;;;;;;5.05;1.50;;;18.80;99.90;;;;;;6914767;28;20448;-80
2022/06/28 03:39:33;;;;;;;3.58;1.45;;;18.80;99.90;;;;;;6916223;28;20432;-79
2022/06/28 03:42:55;;;;;;;4.13;1.30;;;18.70;99.90;;;;;;6913672;28;20443;-79
2022/06/28 03:46:18;;;;;;;4.78;1.60;;;18.60;99.90;;;;;;6914511;28;20432;-79
2022/06/28 03:49:40;;;;;;;5.15;1.50;;;18.60;99.90;;;;;;6914975;28;20496;-78
2022/06/28 03:53:03;;;;;;;4.37;1.50;;;18.50;99.90;;;;;;6912108;28;20438;-79
2022/06/28 03:56:27;;;;;;;4.53;1.40;;;18.50;99.90;;;;;;6914887;28;20439;-78
2022/06/28 03:59:49;;;;;;;3.85;1.30;;;18.50;99.90;;;;;;6913910;28;20469;-76
2022/06/28 04:03:11;;;;;;;3.57;1.20;;;18.60;99.90;;;;;;6909974;28;20443;-79
2022/06/28 04:06:33;;;;;;;3.72;1.30;;;18.70;99.90;;;;;;6914033;28;20436;-79
2022/06/28 04:09:55;;;;;;;4.70;1.40;;;18.80;99.90;;;;;;6913907;28;20441;-78
2022/06/28 04:13:18;;;;;;;3.53;1.27;;;18.70;99.90;;;;;;6913792;28;20440;-78
2022/06/28 04:16:41;;;;;;;4.10;1.40;;;18.80;99.90;;;;;;6913428;28;20475;-77
2022/06/28 04:20:03;;;;;;;4.97;1.42;;;18.80;99.90;;;;;;6911741;28;20441;-77
2022/06/28 04:23:25;;;;;;;4.83;1.70;;;18.80;99.90;;;;;;6913590;28;20467;-77
2022/06/28 04:26:47;;;;;;;4.15;1.60;;;18.90;99.90;;;;;;6913602;28;20476;-77
2022/06/28 04:30:12;;;;;;;4.93;1.60;;;18.90;99.90;;;;;;6913641;28;20444;-78
2022/06/28 04:33:34;;;;;;;4.75;1.60;;;18.90;99.90;;;;;;6916176;28;20802;-78
2022/06/28 04:36:56;;;;;;;4.50;1.50;;;18.80;99.90;;;;;;6918372;28;20471;-79
2022/06/28 04:40:19;;;;;;;4.65;1.58;;;18.80;99.90;;;;;;6917924;28;20969;-79
2022/06/28 04:43:41;;;;;;;4.45;1.60;;;18.80;99.90;;;;;;6917871;28;20460;-79
2022/06/28 04:47:05;;;;;;;4.00;1.50;;;18.70;99.90;;;;;;6882181;28;1088143;-79
2022/06/28 04:50:27;;;;;;;4.97;1.52;;;18.80;99.90;;;;;;6919987;28;20437;-78
2022/06/28 04:53:49;;;;;;;6.50;1.65;;;18.80;99.90;;;;;;6919591;28;20925;-78
2022/06/28 04:57:11;;;;;;;7.03;1.70;;;18.90;99.90;;;;;;6919899;28;20452;-79
2022/06/28 05:00:33;;;;;;;4.85;1.70;;;19.00;99.90;;;;;;6919301;28;20491;-78
2022/06/28 05:03:57;;;;;;;4.25;1.60;;;18.90;99.90;;;;;;6919476;28;20522;-78
2022/06/28 05:07:19;;;;;;;5.20;1.70;;;19.10;99.90;;;;;;6919699;28;20460;-76
2022/06/28 05:10:41;;;;;;;5.53;1.92;;;19.10;99.90;;;;;;6919048;28;20530;-77
2022/06/28 05:14:03;;;;;;;5.88;1.90;;;19.20;99.90;;;;;;6919306;28;20830;-77
2022/06/28 05:17:25;;;;;;;5.00;1.70;;;19.20;99.90;;;;;;6919354;28;20436;-78
2022/06/28 05:20:48;;;;;;;4.90;1.70;;;19.30;99.90;;;;;;6919436;28;20468;-80
2022/06/28 05:24:10;;;;;;;5.00;1.90;;;19.30;99.90;;;;;;6918548;28;20488;-79
2022/06/28 05:27:32;;;;;;;6.20;2.00;;;19.30;99.90;;;;;;6918492;28;20428;-78
2022/06/28 05:30:55;;;;;;;4.65;2.00;;;19.30;99.90;;;;;;6919513;28;20491;-78
2022/06/28 05:34:17;;;;;;;4.50;1.73;;;19.30;99.90;;;;;;6918501;28;20901;-79
2022/06/28 05:37:40;;;;;;;5.00;1.90;;;19.30;99.90;;;;;;6917960;28;20940;-80
2022/06/28 05:41:02;;;;;;;5.03;2.30;;;19.30;99.90;;;;;;6917583;28;20472;-79
2022/06/28 05:44:24;;;;;;;4.57;1.95;;;19.30;99.90;;;;;;6917998;28;20456;-76
2022/06/28 05:47:46;;;;;;;5.30;1.90;;;19.40;99.90;;;;;;6919169;28;20523;-77
2022/06/28 05:51:08;;;;;;;6.03;2.25;;;19.40;99.90;;;;;;6918418;28;20767;-77
2022/06/28 05:54:32;;;;;;;7.95;2.50;;;19.40;99.90;;;;;;6918283;28;20464;-79
2022/06/28 05:57:55;;;;;;;5.93;3.55;;;19.20;99.90;;;;;;6917635;28;20480;-77
2022/06/28 06:01:17;;;;;;;5.40;3.40;;;19.10;99.90;;;;;;6917453;28;20436;-78
2022/06/28 06:04:39;;;;;;;5.75;3.20;;;19.10;99.90;;;;;;6917972;28;20433;-78
2022/06/28 06:08:01;;;;;;;6.68;3.60;;;18.90;99.90;;;;;;6917520;28;20432;-79
2022/06/28 06:11:25;;;;;;;5.97;3.40;;;18.80;99.90;;;;;;6917096;28;20914;-78
2022/06/28 06:14:47;;;;;;;5.18;3.15;;;18.90;99.90;;;;;;6916834;28;20433;-80
2022/06/28 06:18:09;;;;;;;6.80;3.60;;;18.90;99.90;;;;;;6916960;28;20436;-76
2022/06/28 06:21:31;;;;;;;6.80;3.83;;;18.90;99.90;;;;;;6914323;28;20906;-80
2022/06/28 06:24:53;;;;;;;6.13;3.70;;;18.90;99.90;;;;;;6915743;28;20586;-79
2022/06/28 06:28:16;;;;;;;8.82;4.00;;;18.90;99.90;;;;;;6915580;28;20809;-80
2022/06/28 06:31:39;;;;;;;6.05;3.70;;;18.90;99.90;;;;;;6915486;28;20922;-79
2022/06/28 06:35:01;;;;;;;7.20;3.93;;;19.00;99.90;;;;;;6915473;28;20476;-79
2022/06/28 06:38:23;;;;;;;11.88;5.68;;;19.00;99.90;;;;;;6915243;28;20437;-78
2022/06/28 06:41:45;;;;;;;12.03;6.27;;;19.10;99.90;;;;;;6915716;28;20452;-78
2022/06/28 06:45:10;;;;;;;10.23;6.50;;;19.20;99.90;;;;;;6915368;28;20433;-78
2022/06/28 06:48:32;;;;;;;9.32;5.97;;;19.30;99.90;;;;;;6915227;28;20439;-78
2022/06/28 06:51:54;;;;;;;9.68;4.47;;;19.40;99.90;;;;;;6915114;28;20469;-78
2022/06/28 06:55:16;;;;;;;7.82;4.50;;;19.50;99.90;;;;;;6914333;28;20436;-80
2022/06/28 06:58:39;;;;;;;6.60;4.38;;;19.40;99.90;;;;;;6916653;28;20444;-79
2022/06/28 07:02:02;;;;;;;7.75;4.63;;;19.40;99.90;;;;;;6913621;28;20432;-79
2022/06/28 07:05:24;;;;;;;9.13;5.13;;;19.50;99.90;;;;;;6910875;28;20957;-78
2022/06/28 07:08:46;;;;;;;7.93;5.18;;;19.40;99.90;;;;;;6912902;28;20476;-77
2022/06/28 07:12:09;;;;;;;8.10;5.00;;;19.30;99.90;;;;;;6914426;28;20464;-80
2022/06/28 07:15:31;;;;;;;8.00;5.10;;;19.30;99.90;;;;;;6914573;28;20540;-79
2022/06/28 07:18:54;;;;;;;7.03;4.30;;;19.10;99.90;;;;;;6913832;28;21187;-79
2022/06/28 07:22:16;;;;;;;6.20;4.07;;;19.10;99.90;;;;;;6914349;28;20879;-80
2022/06/28 07:25:38;;;;;;;10.30;4.72;;;19.10;99.90;;;;;;6887417;28;20462;-79
2022/06/28 07:29:00;;;;;;;6.95;4.93;;;19.10;99.90;;;;;;6906431;28;20432;-78
2022/06/28 07:32:22;;;;;;;7.50;3.97;;;19.10;99.90;;;;;;6910556;28;20937;-79
2022/06/28 07:35:46;;;;;;;6.10;3.97;;;19.10;99.90;;;;;;6910477;28;20528;-80
2022/06/28 07:39:08;;;;;;;6.10;3.60;;;19.10;99.90;;;;;;6910335;28;20468;-79
2022/06/28 07:42:30;;;;;;;5.45;3.80;;;19.30;99.90;;;;;;6908551;28;20788;-79
2022/06/28 07:45:53;;;;;;;6.70;4.10;;;19.50;99.90;;;;;;6910549;28;21004;-80
2022/06/28 07:49:15;;;;;;;5.93;3.90;;;19.60;99.90;;;;;;6910044;28;20851;-80
2022/06/28 07:52:37;;;;;;;5.82;4.20;;;19.70;99.90;;;;;;6909460;28;20475;-78
2022/06/28 07:56:00;;;;;;;6.55;4.20;;;19.90;99.90;;;;;;6910093;28;20432;-78
2022/06/28 07:59:22;;;;;;;7.75;4.15;;;19.90;99.90;;;;;;6910278;28;20428;-78
2022/06/28 08:02:44;;;;;;;6.05;4.50;;;20.00;99.90;;;;;;6910052;28;20519;-78
2022/06/28 08:06:06;;;;;;;8.35;4.90;;;20.00;99.90;;;;;;6909571;28;20481;-79
2022/06/28 08:09:29;;;;;;;6.22;4.15;;;20.00;99.90;;;;;;6909944;28;20482;-77
2022/06/28 08:12:51;;;;;;;6.90;4.28;;;20.10;99.90;;;;;;6908683;28;20504;-79
2022/06/28 08:16:13;;;;;;;6.90;4.10;;;20.20;99.90;;;;;;6910065;28;20478;-77
2022/06/28 08:19:36;;;;;;;7.50;4.00;;;20.10;99.90;;;;;;6909036;28;20444;-78
2022/06/28 08:22:58;;;;;;;6.00;4.27;;;20.20;99.90;;;;;;6909902;28;20918;-77
2022/06/28 08:26:21;;;;;;;5.53;4.00;;;20.40;99.90;;;;;;6909640;28;20879;-79
2022/06/28 08:29:45;;;;;;;6.88;4.00;;;20.70;99.90;;;;;;6909467;28;20488;-79
2022/06/28 08:33:08;;;;;;;6.28;3.97;;;20.80;99.90;;;;;;6908553;28;20443;-80
2022/06/28 08:36:30;;;;;;;5.97;4.10;;;20.90;99.90;;;;;;6909274;28;20846;-78
2022/06/28 08:39:52;;;;;;;5.35;4.15;;;21.00;99.90;;;;;;6909280;28;20461;-79
2022/06/28 08:43:20;;;;;;;6.15;3.80;;;21.10;99.90;;;;;;6906576;28;20472;-77
2022/06/28 08:46:45;;;;;;;6.40;3.50;;;21.20;99.90;;;;;;6907564;28;20483;-78
2022/06/28 08:50:13;;;;;;;6.27;3.33;;;21.30;99.90;;;;;;6909412;28;20556;-79
2022/06/28 08:53:37;;;;;;;5.18;3.15;;;21.30;99.90;;;;;;6912831;28;20436;-77
2022/06/28 08:57:00;;;;;;;5.57;3.60;;;21.60;99.90;;;;;;6908658;28;20499;-77
2022/06/28 09:00:24;;;;;;;7.25;3.70;;;21.70;99.90;;;;;;6910217;28;20767;-81
2022/06/28 09:03:48;;;;;;;6.07;3.50;;;21.80;99.90;;;;;;6909058;28;20752;-79
2022/06/28 09:07:11;;;;;;;7.07;3.70;;;21.60;99.90;;;;;;6908893;28;20432;-79
2022/06/28 09:10:33;;;;;;;5.10;3.47;;;21.70;99.90;;;;;;6908921;28;20469;-76
2022/06/28 09:13:55;;;;;;;5.22;3.40;;;21.70;99.90;;;;;;6908972;28;20456;-80
2022/06/28 09:17:26;;;;;;;6.32;3.85;;;21.80;99.90;;;;;;6906137;28;20469;-78
2022/06/28 09:20:53;;;;;;;8.23;3.85;;;21.80;99.90;;;;;;6909920;28;20558;-76
2022/06/28 09:24:25;;;;;;;6.53;3.00;;;21.90;99.90;;;;;;6913776;28;20440;-78
2022/06/28 09:27:47;;;;;;;5.00;2.90;;;22.00;99.90;;;;;;6913118;28;20510;-78
2022/06/28 09:31:15;;;;;;;4.57;2.60;;;22.10;99.90;;;;;;6913523;28;20544;-77
2022/06/28 09:34:41;;;;;;;5.05;2.75;;;22.10;99.90;;;;;;6913302;28;20443;-78
2022/06/28 09:38:03;;;;;;;4.88;2.72;;;22.20;99.90;;;;;;6913602;28;20440;-77
2022/06/28 09:41:29;;;;;;;4.63;2.70;;;22.00;99.90;;;;;;6911181;28;20520;-78
2022/06/28 09:44:52;;;;;;;3.53;2.45;;;22.10;99.90;;;;;;6913502;28;20440;-77
2022/06/28 09:48:18;;;;;;;4.67;3.20;;;22.30;99.90;;;;;;6913309;28;20809;-75
2022/06/28 09:51:43;;;;;;;5.85;3.20;;;22.30;99.90;;;;;;6913247;28;20484;-75
2022/06/28 09:55:07;;;;;;;4.55;2.50;;;22.40;99.90;;;;;;6911859;28;20475;-79
2022/06/28 09:58:34;;;;;;;3.97;2.50;;;22.50;99.40;;;;;;6913038;28;20444;-78
2022/06/28 10:01:57;;;;;;;3.90;2.45;;;22.60;98.90;;;;;;6913228;28;20478;-78
2022/06/28 10:05:20;;;;;;;4.30;2.47;;;22.60;98.90;;;;;;6910867;28;20912;-76
2022/06/28 10:08:44;;;;;;;3.53;2.10;;;22.50;99.00;;;;;;6912475;28;20468;-78
2022/06/28 10:15:55;;;;;;;5.30;2.20;;;22.50;98.60;;;;;;6913030;28;20424;-76
2022/06/28 10:19:20;;;;;;;4.63;2.22;;;22.60;98.20;;;;;;6912044;28;20484;-78
2022/06/28 10:22:42;;;;;;;6.28;3.10;;;22.40;98.60;;;;;;6911371;28;20509;-78
2022/06/28 10:26:12;;;;;;;4.47;2.22;;;22.40;98.30;;;;;;6912144;28;20866;-78
2022/06/28 10:30:13;;;;;;;3.72;1.80;;;22.50;97.50;;;;;;6911201;28;20471;-78
2022/06/28 10:33:42;;;;;;;4.90;1.90;;;22.60;97.50;;;;;;6911062;28;20464;-77
2022/06/28 10:37:04;;;;;;;3.38;1.60;;;22.80;97.70;;;;;;6911197;28;20490;-78
2022/06/28 10:40:30;;;;;;;3.97;1.73;;;22.80;97.90;;;;;;6912010;28;20472;-78
2022/06/28 10:44:07;;;;;;;3.70;1.90;;;22.90;97.50;;;;;;6909218;28;20433;-79
2022/06/28 10:47:31;;;;;;;4.30;2.50;;;22.90;97.40;;;;;;6937607;28;20439;-76
2022/06/28 10:50:57;;;;;;;4.10;2.10;;;23.10;97.10;;;;;;6915028;28;20968;-78
2022/06/28 10:54:19;;;;;;;5.18;2.47;;;23.00;97.40;;;;;;6911432;28;20535;-79
2022/06/28 10:57:41;;;;;;;5.13;2.50;;;23.00;96.70;;;;;;6910883;28;20451;-80
2022/06/28 11:01:05;;;;;;;3.83;1.80;;;23.20;96.40;;;;;;6910564;28;20508;-79
2022/06/28 11:04:30;;;;;;;3.42;1.60;;;23.20;96.60;;;;;;6911775;28;20507;-78
2022/06/28 11:08:00;;;;;;;2.88;1.30;;;23.40;96.70;;;;;;6911735;28;20937;-79
2022/06/28 11:11:22;;;;;;;2.97;1.40;;;23.50;94.60;;;;;;6910055;28;20540;-79
2022/06/28 11:14:52;;;;;;;3.13;1.25;;;23.50;93.90;;;;;;6911175;28;20432;-79
2022/06/28 11:18:17;;;;;;;3.58;1.30;;;23.40;94.20;;;;;;6911152;28;20441;-79
2022/06/28 11:21:40;;;;;;;2.67;1.40;;;23.40;94.10;;;;;;6911033;28;20468;-79
2022/06/28 11:25:05;;;;;;;3.40;1.42;;;23.40;93.10;;;;;;6908339;28;20569;-79
2022/06/28 11:28:27;;;;;;;3.83;1.40;;;23.50;94.50;;;;;;6910676;28;20883;-78
2022/06/28 11:31:49;;;;;;;4.20;1.20;;;23.70;94.30;;;;;;6911267;28;20480;-77
2022/06/28 11:35:15;;;;;;;3.88;1.35;;;23.90;93.50;;;;;;6910792;28;20527;-78
2022/06/28 11:38:37;;;;;;;2.85;1.20;;;23.80;93.60;;;;;;6909887;28;20467;-81
2022/06/28 11:41:59;;;;;;;3.05;1.40;;;24.00;93.60;;;;;;6908670;28;20436;-79
2022/06/28 11:45:21;;;;;;;4.43;2.33;;;24.00;92.90;;;;;;6909457;28;20482;-78
2022/06/28 11:48:43;;;;;;;3.15;1.33;;;23.90;93.10;;;;;;6910166;28;20468;-77
2022/06/28 11:52:07;;;;;;;2.50;1.20;;;23.80;92.40;;;;;;6908726;28;20444;-78
2022/06/28 11:55:41;;;;;;;3.03;1.33;;;24.10;92.80;;;;;;6910476;28;20856;-79
2022/06/28 11:59:03;;;;;;;2.50;1.20;;;24.20;92.30;;;;;;6909902;28;20494;-77
2022/06/28 12:02:51;;;;;;;3.70;1.23;;;24.30;92.20;;;;;;6913650;28;20961;-78
2022/06/28 12:06:20;;;;;;;3.70;1.30;;;24.30;92.20;;;;;;6911399;28;20439;-76
2022/06/28 12:09:46;;;;;;;3.50;1.60;;;24.30;92.10;;;;;;6909709;28;20447;-76
2022/06/28 12:13:13;;;;;;;4.53;1.50;;;24.20;92.40;;;;;;6909683;28;20498;-78
2022/06/28 12:16:38;;;;;;;2.30;1.20;;;24.20;92.00;;;;;;6909985;28;20467;-77
2022/06/28 12:20:08;;;;;;;2.90;1.20;;;24.20;91.50;;;;;;6910172;28;20435;-75
2022/06/28 12:23:47;;;;;;;4.35;1.45;;;24.20;91.90;;;;;;6909050;28;20987;-78
2022/06/28 12:27:12;;;;;;;5.07;2.73;;;24.40;92.30;;;;;;6909631;28;20500;-77
2022/06/28 12:30:34;;;;;;;7.07;3.60;;;24.40;92.30;;;;;;6909676;28;21010;-78
2022/06/28 12:33:56;;;;;;;3.88;1.80;;;24.50;91.80;;;;;;6911413;28;20463;-79
2022/06/28 12:37:18;;;;;;;3.58;1.48;;;24.50;92.00;;;;;;6908437;28;20492;-78
2022/06/28 12:40:40;;;;;;;2.60;1.23;;;24.40;92.00;;;;;;6910431;28;20504;-77
2022/06/28 12:44:04;;;;;;;3.05;1.30;;;24.40;91.50;;;;;;6909015;28;20472;-78
2022/06/28 12:47:26;;;;;;;3.40;1.25;;;24.40;91.30;;;;;;6908325;28;20487;-79
2022/06/28 12:50:48;;;;;;;3.00;1.30;;;24.30;91.20;;;;;;6883223;28;20450;-75
2022/06/28 12:54:10;;;;;;;2.93;1.20;;;24.40;90.90;;;;;;6888156;28;20543;-76
2022/06/28 12:57:33;;;;;;;2.53;1.10;;;24.10;90.80;;;;;;6892082;28;20490;-78
2022/06/28 13:00:57;;;;;;;3.33;1.30;;;24.30;91.10;;;;;;6914607;28;20961;-76
2022/06/28 13:04:19;;;;;;;3.17;1.20;;;24.20;91.30;;;;;;6916225;28;20463;-78
2022/06/28 13:07:41;;;;;;;2.92;1.10;;;24.30;91.60;;;;;;6915600;28;20464;-77
2022/06/28 13:11:04;;;;;;;3.22;1.30;;;24.60;91.00;;;;;;6912900;28;20449;-78
2022/06/28 13:14:26;;;;;;;4.07;1.27;;;24.70;90.90;;;;;;6914569;28;20460;-78
2022/06/28 13:17:50;;;;;;;2.85;1.10;;;24.60;90.30;;;;;;6914618;28;20771;-77
2022/06/28 13:21:13;;;;;;;2.70;1.10;;;24.60;90.90;;;;;;6914680;28;20918;-77
2022/06/28 13:24:35;;;;;;;3.13;1.30;;;24.60;91.10;;;;;;6913375;28;20489;-78
2022/06/28 13:27:57;;;;;;;2.50;1.05;;;24.40;90.50;;;;;;6913894;28;20515;-78
2022/06/28 13:31:19;;;;;;;4.13;1.20;;;24.40;90.20;;;;;;6912733;28;20483;-77
2022/06/28 13:34:43;;;;;;;2.83;1.17;;;24.70;89.10;;;;;;6914524;28;20439;-78
2022/06/28 13:38:05;;;;;;;2.97;1.15;;;24.80;88.50;;;;;;6914013;28;20437;-78
2022/06/28 13:41:28;;;;;;;3.55;1.30;;;24.70;88.30;;;;;;6911869;28;20488;-78
2022/06/28 13:44:50;;;;;;;3.30;1.20;;;24.70;87.50;;;;;;6914020;28;20895;-77
2022/06/28 13:48:12;;;;;;;3.53;1.50;;;24.80;88.00;;;;;;6913717;28;20480;-78
2022/06/28 13:51:35;;;;;;;6.25;2.75;;;24.70;88.60;;;;;;6913602;28;20444;-78
2022/06/28 13:54:57;;;;;;;3.77;2.10;;;24.60;89.50;;;;;;6913182;28;20569;-77
2022/06/28 13:58:19;;;;;;;3.77;1.40;;;24.60;89.10;;;;;;6913910;28;20440;-77
2022/06/28 14:01:46;;;;;;;4.70;1.45;;;24.60;88.70;;;;;;6912500;28;20467;-77
2022/06/28 14:05:08;;;;;;;3.53;1.40;;;24.70;89.20;;;;;;6933143;28;20524;-78
2022/06/28 14:08:32;;;;;;;3.53;1.40;;;24.70;89.30;;;;;;6922268;28;20953;-77
2022/06/28 14:11:54;;;;;;;3.30;1.20;;;24.70;89.30;;;;;;6909767;28;20572;-78
2022/06/28 14:15:16;;;;;;;4.10;1.30;;;24.60;88.20;;;;;;6909332;28;20444;-78
2022/06/28 14:18:38;;;;;;;3.97;1.30;;;24.30;89.50;;;;;;6911162;28;20543;-80
2022/06/28 14:22:00;;;;;;;3.03;1.23;;;24.40;90.00;;;;;;6910952;28;20493;-79
2022/06/28 14:25:24;;;;;;;3.23;1.30;;;24.40;90.10;;;;;;6912013;28;20452;-78
2022/06/28 14:28:46;;;;;;;5.25;2.05;;;24.40;90.10;;;;;;6910863;28;20436;-79
2022/06/28 14:32:09;;;;;;;4.18;1.35;;;24.40;90.30;;;;;;6911547;28;20448;-76
2022/06/28 14:35:33;;;;;;;4.28;1.30;;;24.40;90.10;;;;;;6894543;28;20474;-75
2022/06/28 14:38:55;;;;;;;4.47;1.30;;;24.50;90.60;;;;;;6910127;28;20953;-82
2022/06/28 14:42:19;;;;;;;3.90;1.30;;;24.60;90.60;;;;;;6910357;28;20574;-78
2022/06/28 14:45:41;;;;;;;3.05;1.20;;;24.60;90.20;;;;;;6916326;28;20447;-79
2022/06/28 14:49:03;;;;;;;2.90;1.27;;;24.60;90.00;;;;;;6909876;28;20480;-79
2022/06/28 14:52:25;;;;;;;3.22;1.30;;;24.60;90.80;;;;;;6911135;28;20483;-76
2022/06/28 14:55:49;;;;;;;2.78;1.15;;;24.60;90.10;;;;;;6926281;28;20933;-77
2022/06/28 14:59:13;;;;;;;4.22;1.60;;;24.50;90.30;;;;;;6910334;28;20444;-79
2022/06/28 15:02:36;;;;;;;3.05;1.25;;;24.60;89.40;;;;;;6909169;28;20558;-78
2022/06/28 15:05:59;;;;;;;3.20;1.15;;;24.80;88.60;;;;;;6910978;28;20432;-77
2022/06/28 15:09:21;;;;;;;3.28;1.30;;;24.60;90.60;;;;;;6910645;28;20964;-77
2022/06/28 15:12:43;;;;;;;4.30;1.30;;;24.70;90.20;;;;;;6912640;28;20563;-79
2022/06/28 15:16:07;;;;;;;3.10;1.13;;;24.70;90.50;;;;;;6906320;28;20444;-77
2022/06/28 15:19:29;;;;;;;3.28;1.40;;;24.80;90.90;;;;;;6906180;28;20532;-80
2022/06/28 15:33:55;;;;;;;4.10;1.40;;;24.70;90.70;;;;;;6874615;28;20460;-78
2022/06/28 15:37:17;;;;;;;3.05;1.48;;;24.80;90.70;;;;;;6909266;28;20444;-77
2022/06/28 15:40:39;;;;;;;3.75;1.20;;;24.90;90.50;;;;;;6911491;28;20467;-78
2022/06/28 15:44:01;;;;;;;3.42;1.30;;;24.90;90.90;;;;;;6906312;28;20440;-78
2022/06/28 15:47:23;;;;;;;3.50;1.33;;;24.90;90.10;;;;;;6879555;28;20894;-79
2022/06/28 15:50:47;;;;;;;2.80;1.20;;;25.00;90.10;;;;;;6883630;28;20535;-79
2022/06/28 15:54:10;;;;;;;3.72;1.55;;;24.90;90.20;;;;;;6878878;28;20490;-78
2022/06/28 15:57:32;;;;;;;2.80;1.30;;;24.80;90.40;;;;;;6882597;28;20466;-79
2022/06/28 16:00:54;;;;;;;3.70;1.50;;;24.80;90.30;;;;;;6881640;28;20555;-79
2022/06/28 16:04:16;;;;;;;5.50;1.60;;;24.60;90.00;;;;;;6883306;28;21081;-77
2022/06/28 16:07:40;;;;;;;3.50;1.50;;;24.60;89.00;;;;;;6882845;28;20474;-79
2022/06/28 16:11:02;;;;;;;3.00;1.50;;;24.60;89.70;;;;;;6880607;28;20504;-79
2022/06/28 16:14:25;;;;;;;3.38;1.40;;;24.60;89.40;;;;;;6879559;28;20464;-79
2022/06/28 16:17:47;;;;;;;4.20;1.60;;;24.60;89.70;;;;;;6879820;28;20466;-78
2022/06/28 16:21:09;;;;;;;4.50;1.70;;;24.50;90.10;;;;;;6892168;28;20492;-78
2022/06/28 16:24:33;;;;;;;12.35;7.47;;;24.60;90.10;;;;;;6880454;28;20873;-78
2022/06/28 16:27:55;;;;;;;10.27;6.32;;;24.60;90.30;;;;;;6883827;28;20573;-78
2022/06/28 16:31:17;;;;;;;4.27;2.10;;;24.60;90.70;;;;;;6887342;28;20979;-78
2022/06/28 16:34:39;;;;;;;4.57;1.93;;;24.60;90.20;;;;;;6885468;28;20520;-78
2022/06/28 16:38:03;;;;;;;4.63;2.10;;;24.70;90.10;;;;;;6883978;28;20493;-79
2022/06/28 16:41:27;;;;;;;5.07;2.57;;;24.60;90.00;;;;;;6884052;28;20548;-76
2022/06/28 16:44:52;;;;;;;4.55;2.13;;;24.60;90.40;;;;;;6867750;28;20442;-76
2022/06/28 16:48:14;;;;;;;7.68;4.63;;;24.60;90.20;;;;;;6914024;28;20471;-78
2022/06/28 16:51:37;;;;;;;10.55;6.65;;;24.60;90.10;;;;;;6912827;28;20448;-79
2022/06/28 16:55:00;;;;;;;7.90;4.65;;;24.60;90.20;;;;;;6912984;28;20520;-78
2022/06/28 16:58:23;;;;;;;5.40;3.00;;;24.70;90.00;;;;;;6914602;28;20432;-77
2022/06/28 17:01:45;;;;;;;6.50;2.17;;;24.80;90.00;;;;;;6911064;28;20437;-78
2022/06/28 17:05:08;;;;;;;4.63;1.93;;;24.80;90.00;;;;;;6912377;28;20479;-79
2022/06/28 17:08:31;;;;;;;4.22;1.80;;;24.90;90.20;;;;;;6911753;28;20436;-79
2022/06/28 17:11:53;;;;;;;4.17;1.80;;;25.00;89.30;;;;;;6914865;28;20470;-78
2022/06/28 17:15:16;;;;;;;4.13;2.00;;;25.10;89.80;;;;;;6912389;28;20475;-77
2022/06/28 17:18:39;;;;;;;4.05;1.88;;;25.40;88.20;;;;;;6915379;28;20543;-77
2022/06/28 17:22:01;;;;;;;3.22;1.83;;;25.40;88.60;;;;;;6916781;28;20436;-78
2022/06/28 17:25:23;;;;;;;4.70;2.03;;;25.70;88.90;;;;;;6917035;28;20530;-79
2022/06/28 17:28:45;;;;;;;4.15;2.10;;;25.90;88.30;;;;;;6913490;28;20440;-79
2022/06/28 17:32:11;;;;;;;4.50;2.00;;;25.90;88.00;;;;;;6913687;28;20545;-79
2022/06/28 17:35:33;;;;;;;4.95;2.03;;;25.90;86.20;;;;;;6914359;28;20767;-80
2022/06/28 17:38:55;;;;;;;4.47;2.10;;;25.90;86.50;;;;;;6903873;28;20565;-78
2022/06/28 17:42:17;;;;;;;4.80;2.13;;;25.80;87.30;;;;;;6885944;28;20747;-76
2022/06/28 17:45:40;;;;;;;3.47;2.00;;;25.60;87.70;;;;;;6886857;28;20466;-77
2022/06/28 17:49:03;;;;;;;3.53;2.00;;;25.60;88.90;;;;;;6898409;28;20434;-77
2022/06/28 17:52:25;;;;;;;4.32;2.10;;;25.50;87.90;;;;;;6912527;28;20451;-80
2022/06/28 17:55:47;;;;;;;4.28;2.10;;;25.40;87.90;;;;;;6913662;28;20918;-79
2022/06/28 17:59:10;;;;;;;3.87;2.07;;;25.30;88.20;;;;;;6912432;28;20555;-80
2022/06/28 18:02:32;;;;;;;5.70;2.10;;;25.30;89.00;;;;;;6912010;28;20480;-78